KFPR/FPR METAR and TAF weather

Enter ICAO airport designator
Station Type Date Time Source
KFPR METAR 2022/01/26 07:53 UTC NOAA

KFPR 260753Z AUTO 35007KT 10SM OVC044 17/15 A2999 RMK AO2 SLP153 T01670150


Station Type Date Time Source
KFPR Decoded METAR 2022/01/26 07:53 UTC NOAA

FORT PIERCE ST LUCIE, FL, United States (KFPR) 27-30N 080-23W 13M
Jan 26, 2022 - 02:53 AM EST / 2022.01.26 0753 UTC
Wind: from the N (350 degrees) at 8 MPH (7 KT):0
Visibility: 10 mile(s):0
Sky conditions: overcast
Temperature: 62.1 F (16.7 C)
Dew Point: 59.0 F (15.0 C)
Relative Humidity: 89%
Pressure (altimeter): 29.99 in. Hg (1015 hPa)
ob: KFPR 260753Z AUTO 35007KT 10SM OVC044 17/15 A2999 RMK AO2 SLP153 T01670150
cycle: 8

Station Type Date Time Source
KFPR TAF 2022/01/26 06:27 UTC NOAA

TAF KFPR 260525Z 2606/2706 VRB04KT P6SM -SHRA SCT040 OVC080
FM261000 33004KT 6SM -SHRA BKN030 OVC050
FM261500 02009KT 6SM SHRA BR BKN020 OVC050
FM262300 01008KT P6SM VCSH BKN020 BKN050

Example: see airport list